Time;durP1;ratioP1;P1;durP2;ratioP2;P2;SDS_P1;SDS_P2;PMS_P1;PMS_P2;Temp;Humidity;BMP_temperature;BMP_pressure;BME280_temperature;BME280_humidity;BME280_pressure;Samples;Min_cycle;Max_cycle;Signal;HPM_P1;HPM_P2
2022/12/16 00:58:59;;;;;;;;;;;;;;;;;;2241204;54;1834;-84
2022/12/16 01:01:33;;;;;;;;;;;;;;;;;;2201049;60;1195;-84
2022/12/16 01:04:10;;;;;;;;;;;;;;;;;;2201323;60;1226;-86
2022/12/16 01:06:46;;;;;;;;;;;;;;;;;;2197332;67;1248;-84
2022/12/16 01:09:20;;;;;;;;;;;;;;;;;;2196478;67;1918;-84
2022/12/16 01:11:57;;;;;;;;;;;;;;;;;;2197112;59;1553;-84
2022/12/16 01:14:42;;;;;;;;;;;;;;;;;;2192780;59;1509;-85
2022/12/16 01:17:16;;;;;;;;;;;;;;;;;;2195764;59;1208;-87
2022/12/16 01:19:53;;;;;;;;;;;;;;;;;;2196519;67;1150;-87
2022/12/16 01:22:26;;;;;;;;;;;;;;;;;;2195381;59;1166;-84
2022/12/16 01:25:02;;;;;;;;;;;;;;;;;;2195276;59;1147;-83
2022/12/16 01:27:36;;;;;;;;;;;;;;;;;;2191445;67;1223;-84
2022/12/16 01:30:13;;;;;;;;;;;;;;;;;;2194816;59;2035;-85
2022/12/16 01:32:46;;;;;;;;;;;;;;;;;;2193943;67;1185;-83
2022/12/16 01:35:20;;;;;;;;;;;;;;;;;;2192713;59;1296;-86
2022/12/16 01:37:53;;;;;;;;;;;;;;;;;;2193514;59;1211;-85
2022/12/16 01:40:26;;;;;;;;;;;;;;;;;;2193372;67;1159;-88
2022/12/16 01:43:00;;;;;;;;;;;;;;;;;;2193504;67;1016;-83
2022/12/16 01:45:37;;;;;;;;;;;;;;;;;;2197541;67;1283;-82
2022/12/16 01:48:19;;;;;;;;;;;;;;;;;;2199327;67;1310;-82
2022/12/16 01:50:56;;;;;;;;;;;;;;;;;;2200541;67;1977;-83
2022/12/16 01:53:29;;;;;;;;;;;;;;;;;;2199175;67;1238;-85
2022/12/16 01:56:03;;;;;;;;;;;;;;;;;;2199623;67;1230;-81
2022/12/16 01:58:42;;;;;;;;;;;;;;;;;;2200173;59;1194;-81
2022/12/16 03:00:20;;;;;;;;;;;;;;;;;;2205923;54;1640;-71
2022/12/16 03:02:56;;;;;;;;;;;;;;;;;;2194114;59;1232;-71
2022/12/16 03:05:32;;;;;;;;;;;;;;;;;;2195856;59;1330;-71
2022/12/16 03:08:07;;;;;;;;;;;;;;;;;;2195355;67;1306;-71
2022/12/16 03:10:45;;;;;;;;;;;;;;;;;;2191798;60;1948;-71
2022/12/16 03:13:19;;;;;;;;;;;;;;;;;;2198152;54;3641;-73
2022/12/16 03:15:58;;;;;;;;;;;;;;;;;;2195956;59;1584;-72
2022/12/16 03:18:31;;;;;;;;;;;;;;;;;;2196858;60;1155;-72
2022/12/16 03:21:05;;;;;;;;;;;;;;;;;;2196815;59;1308;-72
2022/12/16 03:23:41;;;;;;;;;;;;;;;;;;2198750;59;1254;-72
2022/12/16 03:26:17;;;;;;;;;;;;;;;;;;2201190;67;1018;-72
2022/12/16 03:28:52;;;;;;;;;;;;;;;;;;2201093;59;1727;-72
2022/12/16 03:31:32;;;;;;;;;;;;;;;;;;2200817;67;1941;-72
2022/12/16 03:34:09;;;;;;;;;;;;;;;;;;2200404;59;1226;-73
2022/12/16 03:36:44;;;;;;;;;;;;;;;;;;2201738;59;1226;-72
2022/12/16 03:39:18;;;;;;;;;;;;;;;;;;2201393;59;1216;-72
2022/12/16 03:41:53;;;;;;;;;;;;;;;;;;2201607;67;1140;-72
2022/12/16 03:44:26;;;;;;;;;;;;;;;;;;2200876;59;1303;-72
2022/12/16 03:47:02;;;;;;;;;;;;;;;;;;2201397;59;2297;-72
2022/12/16 03:49:36;;;;;;;;;;;;;;;;;;2201768;67;1929;-73
2022/12/16 03:52:09;;;;;;;;;;;;;;;;;;2201605;59;1323;-73
2022/12/16 03:54:42;;;;;;;;;;;;;;;;;;2201629;67;1220;-72
2022/12/16 03:57:15;;;;;;;;;;;;;;;;;;2201369;67;1114;-72
2022/12/16 03:59:48;;;;;;;;;;;;;;;;;;2201839;67;1010;-71
2022/12/16 04:02:24;;;;;;;;;;;;;;;;;;2201965;59;1271;-72
2022/12/16 04:04:57;;;;;;;;;;;;;;;;;;2201527;59;1304;-72
2022/12/16 04:07:31;;;;;;;;;;;;;;;;;;2202340;67;1104;-72
2022/12/16 04:10:04;;;;;;;;;;;;;;;;;;2199843;59;4379;-72
2022/12/16 04:30:17;;;;;;;;;;;;;;;;;;2202274;59;1992;-72
2022/12/16 04:34:24;;;;;;;;;;;;;;;;;;2201580;59;1610;-72
